createdAt,value
2019-04-21T00:02:08.859Z,3.40
2019-04-21T00:04:50.701Z,3.70
2019-04-21T00:07:25.025Z,3.27
2019-04-21T00:10:02.524Z,3.17
2019-04-21T00:12:29.938Z,3.80
2019-04-21T00:14:51.295Z,3.70
2019-04-21T00:17:16.362Z,3.87
2019-04-21T00:19:44.639Z,3.87
2019-04-21T00:22:27.290Z,4.03
2019-04-21T00:25:01.032Z,4.13
2019-04-21T00:27:33.730Z,3.80
2019-04-21T00:30:14.128Z,4.40
2019-04-21T00:32:32.759Z,3.93
2019-04-21T00:34:56.572Z,4.30
2019-04-21T00:37:30.288Z,3.63
2019-04-21T00:40:09.243Z,3.77
2019-04-21T00:42:41.581Z,4.17
2019-04-21T00:45:08.138Z,3.60
2019-04-21T00:47:39.038Z,4.20
2019-04-21T00:50:19.060Z,4.13
2019-04-21T00:55:27.620Z,3.93
2019-04-21T00:57:57.386Z,4.10
2019-04-21T01:00:22.314Z,4.07
2019-04-21T01:02:59.398Z,3.97
2019-04-21T01:05:26.709Z,3.77
2019-04-21T01:07:50.331Z,3.60
2019-04-21T01:10:20.820Z,3.87
2019-04-21T01:13:04.376Z,4.27
2019-04-21T01:15:41.405Z,3.90
2019-04-21T01:17:57.409Z,4.00
2019-04-21T01:20:17.287Z,3.87
2019-04-21T01:22:41.845Z,4.00
2019-04-21T01:25:20.256Z,3.67
2019-04-21T01:27:58.761Z,4.23
2019-04-21T01:30:34.707Z,3.90
2019-04-21T01:33:07.212Z,4.00
2019-04-21T01:35:34.391Z,3.90
2019-04-21T01:38:07.088Z,3.80
2019-04-21T01:40:34.977Z,3.63
2019-04-21T01:43:07.438Z,3.83
2019-04-21T01:45:41.632Z,3.53
2019-04-21T01:48:05.814Z,3.80
2019-04-21T01:50:36.234Z,3.97
2019-04-21T01:53:30.608Z,4.40
2019-04-21T01:56:03.146Z,4.17
2019-04-21T01:58:27.064Z,4.10
2019-04-21T02:01:08.682Z,4.20
2019-04-21T02:03:58.443Z,4.10
2019-04-21T02:06:18.485Z,4.60
2019-04-21T02:08:44.925Z,4.47
2019-04-21T02:11:17.313Z,4.00
2019-04-21T02:13:53.530Z,4.37
2019-04-21T02:16:18.534Z,4.13
2019-04-21T02:18:47.835Z,4.10
2019-04-21T02:21:09.138Z,4.60
2019-04-21T02:23:56.090Z,5.17
2019-04-21T02:26:22.965Z,4.27
2019-04-21T02:28:56.574Z,4.27
2019-04-21T02:36:40.429Z,4.50
2019-04-21T02:39:16.612Z,4.57
2019-04-21T02:46:40.058Z,4.57
2019-04-21T02:51:50.202Z,4.47
2019-04-21T03:07:13.064Z,4.30
2019-04-21T03:09:35.794Z,4.77
2019-04-21T03:12:11.229Z,4.50
2019-04-21T03:17:20.605Z,4.17
2019-04-21T03:19:55.537Z,4.73
2019-04-21T03:22:57.626Z,4.47
2019-04-21T03:25:21.417Z,4.17
2019-04-21T03:37:25.257Z,4.30
2019-04-21T03:39:50.761Z,3.70
2019-04-21T03:42:32.811Z,4.63
2019-04-21T03:44:59.988Z,4.03
2019-04-21T03:47:22.987Z,4.60
2019-04-21T03:49:54.630Z,4.17
2019-04-21T03:52:31.875Z,4.30
2019-04-21T03:55:35.526Z,4.00
2019-04-21T03:57:57.498Z,4.30
2019-04-21T04:00:20.907Z,4.37
2019-04-21T04:03:10.515Z,4.23
2019-04-21T04:05:59.611Z,4.20
2019-04-21T04:08:39.608Z,4.73
2019-04-21T04:11:06.779Z,3.83
2019-04-21T04:13:29.593Z,4.57
2019-04-21T04:16:10.267Z,4.20
2019-04-21T04:18:31.924Z,3.90
2019-04-21T04:20:58.819Z,4.83
2019-04-21T04:23:28.658Z,4.13
2019-04-21T04:25:51.625Z,4.23
2019-04-21T04:28:28.873Z,4.23
2019-04-21T04:30:52.052Z,4.50
2019-04-21T04:36:02.123Z,4.20
2019-04-21T04:38:39.583Z,4.10
2019-04-21T04:41:22.469Z,4.33
2019-04-21T04:43:42.359Z,4.43
2019-04-21T04:46:09.579Z,4.13
2019-04-21T04:48:47.667Z,4.23
2019-04-21T04:51:36.475Z,4.00
2019-04-21T04:53:44.019Z,4.07
2019-04-21T04:56:10.508Z,3.67
2019-04-21T05:03:49.011Z,4.33
2019-04-21T05:06:37.410Z,3.70
2019-04-21T05:11:41.648Z,3.80
2019-04-21T05:13:55.030Z,4.13
2019-04-21T05:16:36.354Z,4.37
2019-04-21T05:19:04.154Z,4.10
2019-04-21T05:21:30.374Z,4.20
2019-04-21T05:23:50.106Z,4.77
2019-04-21T05:26:11.685Z,4.30
2019-04-21T05:28:41.951Z,4.40
2019-04-21T05:31:36.761Z,4.77
2019-04-21T05:34:07.470Z,5.07
2019-04-21T05:36:44.477Z,4.13
2019-04-21T05:39:10.432Z,4.57
2019-04-21T05:41:38.665Z,4.30
2019-04-21T05:44:31.236Z,4.33
2019-04-21T05:47:05.553Z,4.70
2019-04-21T05:49:22.309Z,4.83
2019-04-21T05:51:58.434Z,4.90
2019-04-21T05:54:39.619Z,4.73
2019-04-21T05:57:05.846Z,4.80
2019-04-21T05:59:41.729Z,4.63
2019-04-21T06:02:20.988Z,5.20
2019-04-21T06:05:02.718Z,4.30
2019-04-21T06:07:18.967Z,4.63
2019-04-21T06:09:48.885Z,4.87
2019-04-21T06:12:18.279Z,4.67
2019-04-21T06:14:52.126Z,4.50
2019-04-21T06:17:36.903Z,4.60
2019-04-21T06:20:15.396Z,4.43
2019-04-21T06:22:23.942Z,4.50
2019-04-21T06:30:01.872Z,5.37
2019-04-21T06:35:12.471Z,5.03
2019-04-21T06:37:44.189Z,4.93
2019-04-21T06:40:15.294Z,5.00
2019-04-21T06:42:40.531Z,4.97
2019-04-21T06:45:27.574Z,4.47
2019-04-21T06:47:42.111Z,5.27
2019-04-21T06:50:09.642Z,5.30
2019-04-21T06:52:51.949Z,5.83
2019-04-21T06:57:38.899Z,5.40
2019-04-21T07:00:13.757Z,4.60
2019-04-21T07:05:15.378Z,5.00
2019-04-21T07:07:51.779Z,4.73
2019-04-21T07:10:14.344Z,5.17
2019-04-21T07:12:42.904Z,5.40
2019-04-21T07:15:11.051Z,5.20
2019-04-21T07:17:45.388Z,4.50
2019-04-21T07:20:17.342Z,5.40
2019-04-21T07:22:50.828Z,6.00
2019-04-21T07:25:15.389Z,4.90
2019-04-21T07:27:50.754Z,5.70
2019-04-21T07:30:23.074Z,5.33
2019-04-21T07:32:59.007Z,4.97
2019-04-21T07:35:22.071Z,5.37
2019-04-21T07:37:51.015Z,5.13
2019-04-21T07:40:13.455Z,5.20
2019-04-21T07:42:46.941Z,5.33
2019-04-21T07:45:16.884Z,5.80
2019-04-21T07:48:06.564Z,5.30
2019-04-21T07:50:39.022Z,5.20
2019-04-21T07:53:19.654Z,5.23
2019-04-21T07:58:10.772Z,5.40
2019-04-21T08:03:13.781Z,5.67
2019-04-21T08:05:45.796Z,5.90
2019-04-21T08:08:12.130Z,5.53
2019-04-21T08:10:45.298Z,5.47
2019-04-21T08:13:25.261Z,5.70
2019-04-21T08:16:04.769Z,6.10
2019-04-21T08:18:20.482Z,5.20
2019-04-21T08:20:49.185Z,5.43
2019-04-21T08:23:18.646Z,5.10
2019-04-21T08:25:58.874Z,4.77
2019-04-21T08:28:24.083Z,5.03
2019-04-21T08:30:47.883Z,5.43
2019-04-21T08:36:13.105Z,5.40
2019-04-21T08:38:21.910Z,4.83
2019-04-21T08:40:57.548Z,4.93
2019-04-21T08:43:40.016Z,5.27
2019-04-21T08:46:01.543Z,5.13
2019-04-21T08:48:29.293Z,4.97
2019-04-21T08:51:10.403Z,4.80
2019-04-21T08:53:49.225Z,4.50
2019-04-21T08:58:47.923Z,4.60
2019-04-21T09:01:22.573Z,4.30
2019-04-21T09:06:31.640Z,4.70
2019-04-21T09:09:01.685Z,4.90
2019-04-21T09:11:23.976Z,4.60
2019-04-21T09:14:01.471Z,4.10
2019-04-21T09:16:24.946Z,4.30
2019-04-21T09:18:54.393Z,4.50
2019-04-21T09:21:25.915Z,4.50
2019-04-21T09:24:07.483Z,3.73
2019-04-21T09:26:31.126Z,3.97
2019-04-21T09:28:52.081Z,3.73
2019-04-21T09:31:17.951Z,4.03
2019-04-21T09:33:50.190Z,4.30
2019-04-21T09:36:21.205Z,3.87
2019-04-21T09:38:58.692Z,3.73
2019-04-21T09:41:20.866Z,3.90
2019-04-21T09:43:52.123Z,3.87
2019-04-21T09:46:18.549Z,3.47
2019-04-21T09:48:55.424Z,3.67
2019-04-21T09:51:18.239Z,3.63
2019-04-21T09:53:54.597Z,3.90
2019-04-21T09:56:29.961Z,4.10
2019-04-21T09:58:53.258Z,3.33
2019-04-21T10:01:28.249Z,3.70
2019-04-21T10:03:55.212Z,3.60
2019-04-21T10:06:21.553Z,3.90
2019-04-21T10:08:56.526Z,4.43
2019-04-21T10:11:22.656Z,3.77
2019-04-21T10:13:52.934Z,4.03
2019-04-21T10:16:29.821Z,4.37
2019-04-21T10:18:58.881Z,3.67
2019-04-21T10:21:29.303Z,3.57
2019-04-21T10:23:59.747Z,3.97
2019-04-21T10:26:28.864Z,3.60
2019-04-21T10:29:04.343Z,4.17
2019-04-21T10:31:29.032Z,4.30
2019-04-21T10:33:58.932Z,4.07
2019-04-21T10:36:28.965Z,4.10
2019-04-21T10:39:00.392Z,3.80
2019-04-21T10:41:29.649Z,3.67
2019-04-21T10:43:59.087Z,4.23
2019-04-21T10:46:28.812Z,3.70
2019-04-21T10:48:58.885Z,3.83
2019-04-21T10:51:28.759Z,4.50
2019-04-21T10:53:57.992Z,3.20
2019-04-21T10:56:34.362Z,4.20
2019-04-21T10:58:58.358Z,3.73
2019-04-21T11:01:29.242Z,3.77
2019-04-21T11:04:07.541Z,3.60
2019-04-21T11:06:36.878Z,3.50
2019-04-21T11:09:08.692Z,3.60
2019-04-21T11:11:39.721Z,3.33
2019-04-21T11:14:08.825Z,3.30
2019-04-21T11:16:39.226Z,3.17
2019-04-21T11:19:09.446Z,3.10
2019-04-21T11:21:38.793Z,3.27
2019-04-21T11:24:08.200Z,3.37
2019-04-21T11:26:37.904Z,3.30
2019-04-21T11:29:07.291Z,3.10
2019-04-21T11:31:36.897Z,2.80
2019-04-21T11:34:07.144Z,3.00
2019-04-21T11:36:37.466Z,2.73
2019-04-21T11:39:19.950Z,3.20
2019-04-21T11:41:39.406Z,3.17
2019-04-21T11:44:08.329Z,2.93
2019-04-21T11:46:38.359Z,3.37
2019-04-21T11:49:08.408Z,3.67
2019-04-21T11:51:37.540Z,2.90
2019-04-21T11:54:06.786Z,2.97
2019-04-21T11:56:36.999Z,2.93
2019-04-21T11:59:05.983Z,3.00
2019-04-21T12:01:35.944Z,3.43
2019-04-21T12:04:05.504Z,3.60
2019-04-21T12:06:39.714Z,2.70
2019-04-21T12:09:06.976Z,2.43
2019-04-21T12:11:36.933Z,2.87
2019-04-21T12:14:05.992Z,2.80
2019-04-21T12:16:35.159Z,2.43
2019-04-21T12:19:05.155Z,2.73
2019-04-21T12:21:47.900Z,2.50
2019-04-21T12:24:04.808Z,2.83
2019-04-21T12:26:33.898Z,2.70
2019-04-21T12:29:03.886Z,2.60
2019-04-21T12:31:43.754Z,2.60
2019-04-21T12:34:13.789Z,2.73
2019-04-21T12:36:43.711Z,2.23
2019-04-21T12:39:12.934Z,2.60
2019-04-21T12:41:42.631Z,2.70
2019-04-21T12:44:12.831Z,2.47
2019-04-21T12:46:43.635Z,2.40
2019-04-21T12:49:13.786Z,2.43
2019-04-21T12:51:44.098Z,2.30
2019-04-21T12:54:13.121Z,2.20
2019-04-21T12:56:43.257Z,2.10
2019-04-21T12:59:12.385Z,2.20
2019-04-21T13:01:41.315Z,2.10
2019-04-21T13:04:10.251Z,2.43
2019-04-21T13:06:39.424Z,1.97
2019-04-21T13:09:11.250Z,2.10
2019-04-21T13:11:39.423Z,1.90
2019-04-21T13:14:08.435Z,1.80
2019-04-21T13:16:37.381Z,1.80
2019-04-21T13:19:07.160Z,1.80
2019-04-21T13:21:36.212Z,2.10
2019-04-21T13:24:05.265Z,2.00
2019-04-21T13:26:43.057Z,1.73
2019-04-21T13:29:06.027Z,1.97
2019-04-21T13:31:36.241Z,1.40
2019-04-21T13:34:06.171Z,2.00
2019-04-21T13:36:35.987Z,1.70
2019-04-21T13:39:37.967Z,1.73
2019-04-21T13:41:53.294Z,2.50
2019-04-21T13:44:15.528Z,2.13
2019-04-21T13:46:45.084Z,1.90
2019-04-21T13:49:14.250Z,2.00
2019-04-21T13:51:44.014Z,2.30
2019-04-21T13:54:14.084Z,1.93
2019-04-21T13:56:44.539Z,1.93
2019-04-21T13:59:14.128Z,1.77
2019-04-21T14:01:43.655Z,1.90
2019-04-21T14:04:25.628Z,1.70
2019-04-21T14:06:54.529Z,2.10
2019-04-21T14:09:35.958Z,2.00
2019-04-21T14:11:55.765Z,1.53
2019-04-21T14:14:26.147Z,2.07
2019-04-21T14:16:56.155Z,2.10
2019-04-21T14:19:25.589Z,1.80
2019-04-21T14:21:55.242Z,1.83
2019-04-21T14:24:24.630Z,1.80
2019-04-21T14:26:54.325Z,2.40
2019-04-21T14:29:23.812Z,2.27
2019-04-21T14:31:54.059Z,2.20
2019-04-21T14:34:23.896Z,2.00
2019-04-21T14:36:53.008Z,2.33
2019-04-21T14:39:22.881Z,1.70
2019-04-21T14:41:51.867Z,2.00
2019-04-21T14:44:20.802Z,1.63
2019-04-21T14:46:51.417Z,1.90
2019-04-21T14:49:41.579Z,1.93
2019-04-21T14:52:21.271Z,1.80
2019-04-21T14:54:51.840Z,1.87
2019-04-21T14:57:21.245Z,2.00
2019-04-21T14:59:51.109Z,2.07
2019-04-21T15:02:20.343Z,2.17
2019-04-21T15:04:49.368Z,1.80
2019-04-21T15:07:19.236Z,2.07
2019-04-21T15:10:01.145Z,1.97
2019-04-21T15:12:20.071Z,1.90
2019-04-21T15:14:49.881Z,1.90
2019-04-21T15:17:21.196Z,1.93
2019-04-21T15:19:58.660Z,1.97
2019-04-21T15:22:20.713Z,1.93
2019-04-21T15:24:52.035Z,1.90
2019-04-21T15:27:21.041Z,1.63
2019-04-21T15:29:51.063Z,1.73
2019-04-21T15:32:20.124Z,1.70
2019-04-21T15:34:49.912Z,1.90
2019-04-21T15:37:19.984Z,1.63
2019-04-21T15:39:49.025Z,1.60
2019-04-21T15:42:18.637Z,1.53
2019-04-21T15:44:48.471Z,1.60
2019-04-21T15:47:17.812Z,1.30
2019-04-21T15:50:00.905Z,1.30
2019-04-21T15:52:25.469Z,1.63
2019-04-21T15:54:56.888Z,1.20
2019-04-21T15:57:29.728Z,1.10
2019-04-21T16:00:18.618Z,1.30
2019-04-21T16:02:48.573Z,1.50
2019-04-21T16:05:18.813Z,1.30
2019-04-21T16:07:48.185Z,1.30
2019-04-21T16:10:28.285Z,1.60
2019-04-21T16:12:48.006Z,1.30
2019-04-21T16:15:18.658Z,1.30
2019-04-21T16:17:47.828Z,1.30
2019-04-21T16:20:17.690Z,1.13
2019-04-21T16:22:46.654Z,1.43
2019-04-21T16:25:17.033Z,1.90
2019-04-21T16:27:47.573Z,1.73
2019-04-21T16:30:17.674Z,1.40
2019-04-21T16:32:48.179Z,1.50
2019-04-21T16:35:18.656Z,2.00
2019-04-21T16:37:49.756Z,1.63
2019-04-21T16:40:19.747Z,1.37
2019-04-21T16:42:49.991Z,1.40
2019-04-21T16:45:21.089Z,1.60
2019-04-21T16:47:53.371Z,1.53
2019-04-21T16:50:21.519Z,1.47
2019-04-21T16:52:52.304Z,1.50
2019-04-21T16:55:26.763Z,1.20
2019-04-21T16:58:15.219Z,1.50
2019-04-21T17:00:57.534Z,1.73
2019-04-21T17:03:18.829Z,2.03
2019-04-21T17:05:50.098Z,1.40
2019-04-21T17:08:19.837Z,1.50
2019-04-21T17:10:59.170Z,1.40
2019-04-21T17:13:20.315Z,1.60
2019-04-21T17:16:07.893Z,1.40
2019-04-21T17:18:36.133Z,1.23
2019-04-21T17:20:55.373Z,1.43
2019-04-21T17:23:21.743Z,1.40
2019-04-21T17:25:50.932Z,1.30
2019-04-21T17:28:19.804Z,1.50
2019-04-21T17:30:48.800Z,1.50
2019-04-21T17:33:21.574Z,1.60
2019-04-21T17:35:49.178Z,1.30
2019-04-21T17:38:18.551Z,1.30
2019-04-21T17:40:47.590Z,1.17
2019-04-21T17:43:18.409Z,1.30
2019-04-21T17:45:48.690Z,1.47
2019-04-21T17:48:19.637Z,1.20
2019-04-21T17:51:03.427Z,1.27
2019-04-21T17:53:51.290Z,1.30
2019-04-21T17:56:41.319Z,1.30
2019-04-21T17:59:02.938Z,1.30
2019-04-21T18:01:42.405Z,1.10
2019-04-21T18:04:10.628Z,1.53
2019-04-21T18:06:39.762Z,1.30
2019-04-21T18:09:24.291Z,1.40
2019-04-21T18:11:48.055Z,1.20
2019-04-21T18:13:57.478Z,1.50
2019-04-21T18:16:35.648Z,1.40
2019-04-21T18:18:57.193Z,1.43
2019-04-21T18:21:51.403Z,1.30
2019-04-21T18:24:22.244Z,1.60
2019-04-21T18:26:55.427Z,1.53
2019-04-21T18:29:21.319Z,1.43
2019-04-21T18:31:52.401Z,1.70
2019-04-21T18:34:42.805Z,1.90
2019-04-21T18:37:14.208Z,1.90
2019-04-21T18:39:58.455Z,1.70
2019-04-21T18:42:37.487Z,1.70
2019-04-21T18:45:34.425Z,1.60
2019-04-21T18:47:58.499Z,1.90
2019-04-21T18:50:40.159Z,2.07
2019-04-21T18:53:36.469Z,1.73
2019-04-21T18:55:58.197Z,1.80
2019-04-21T18:58:22.471Z,1.50
2019-04-21T19:00:53.071Z,1.30
2019-04-21T19:03:30.671Z,1.30
2019-04-21T19:06:01.220Z,1.60
2019-04-21T19:08:51.268Z,1.50
2019-04-21T19:11:14.873Z,1.30
2019-04-21T19:14:17.374Z,1.27
2019-04-21T19:19:31.546Z,1.50
2019-04-21T19:21:28.010Z,1.50
2019-04-21T19:24:10.683Z,2.00
2019-04-21T19:26:41.000Z,2.63
2019-04-21T19:29:16.016Z,2.37
2019-04-21T19:31:38.260Z,2.20
2019-04-21T19:34:00.985Z,1.90
2019-04-21T19:36:19.317Z,1.93
2019-04-21T19:38:58.218Z,1.73
2019-04-21T19:41:32.750Z,1.70
2019-04-21T19:44:07.015Z,1.80
2019-04-21T19:46:36.862Z,2.20
2019-04-21T19:49:16.674Z,1.70
2019-04-21T19:51:35.513Z,2.20
2019-04-21T19:54:02.161Z,1.80
2019-04-21T19:56:24.133Z,2.87
2019-04-21T19:59:07.001Z,3.43
2019-04-21T20:01:37.239Z,3.03
2019-04-21T20:04:06.371Z,2.80
2019-04-21T20:06:47.702Z,3.00
2019-04-21T20:09:22.006Z,3.47
2019-04-21T20:11:56.823Z,4.10
2019-04-21T20:16:54.468Z,3.17
2019-04-21T20:19:12.571Z,3.33
2019-04-21T20:21:41.154Z,2.97
2019-04-21T20:24:14.189Z,2.83
2019-04-21T20:26:45.067Z,3.10
2019-04-21T20:29:27.693Z,3.33
2019-04-21T20:31:57.474Z,3.13
2019-04-21T20:34:33.594Z,2.97
2019-04-21T20:37:02.191Z,3.20
2019-04-21T20:39:21.262Z,2.87
2019-04-21T20:41:56.024Z,3.60
2019-04-21T20:44:29.639Z,3.03
2019-04-21T20:46:59.863Z,2.80
2019-04-21T20:49:27.099Z,2.80
2019-04-21T20:52:14.995Z,2.83
2019-04-21T20:54:37.148Z,3.23
2019-04-21T20:57:07.476Z,3.40
2019-04-21T20:59:31.767Z,3.27
2019-04-21T21:02:06.690Z,3.67
2019-04-21T21:04:30.081Z,3.20
2019-04-21T21:07:16.647Z,2.87
2019-04-21T21:09:32.436Z,3.27
2019-04-21T21:12:21.989Z,2.80
2019-04-21T21:14:36.441Z,2.40
2019-04-21T21:17:26.131Z,2.53
2019-04-21T21:19:48.723Z,2.70
2019-04-21T21:22:07.736Z,2.70
2019-04-21T21:24:46.171Z,3.10
2019-04-21T21:27:14.245Z,2.80
2019-04-21T21:29:45.273Z,2.40
2019-04-21T21:32:24.147Z,2.63
2019-04-21T21:34:53.026Z,3.03
2019-04-21T21:37:26.666Z,2.57
2019-04-21T21:39:51.930Z,2.23
2019-04-21T21:42:05.095Z,2.40
2019-04-21T21:44:33.787Z,2.43
2019-04-21T21:47:17.509Z,2.90
2019-04-21T21:49:48.145Z,2.67
2019-04-21T21:52:15.873Z,2.70
2019-04-21T21:54:35.905Z,2.27
2019-04-21T21:57:05.069Z,2.70
2019-04-21T21:59:38.103Z,2.40
2019-04-21T22:02:05.238Z,2.80
2019-04-21T22:04:37.266Z,2.77
2019-04-21T22:07:10.206Z,2.70
2019-04-21T22:09:36.516Z,2.90
2019-04-21T22:12:07.224Z,2.90
2019-04-21T22:14:41.580Z,2.90
2019-04-21T22:17:21.827Z,2.70
2019-04-21T22:20:03.359Z,2.53
2019-04-21T22:22:22.856Z,2.70
2019-04-21T22:24:53.184Z,2.40
2019-04-21T22:27:12.876Z,2.80
2019-04-21T22:29:47.746Z,2.83
2019-04-21T22:32:17.323Z,2.67
2019-04-21T22:34:50.612Z,2.50
2019-04-21T22:37:26.171Z,2.77
2019-04-21T22:39:57.812Z,2.43
2019-04-21T22:42:22.447Z,2.60
2019-04-21T22:44:48.096Z,3.00
2019-04-21T22:47:25.042Z,2.57
2019-04-21T22:49:50.636Z,3.10
2019-04-21T22:52:24.013Z,2.80
2019-04-21T22:54:51.024Z,3.20
2019-04-21T22:57:23.764Z,2.97
2019-04-21T22:59:57.329Z,2.33
2019-04-21T23:02:27.697Z,3.40
2019-04-21T23:04:57.693Z,3.00
2019-04-21T23:07:24.707Z,2.90
2019-04-21T23:09:55.458Z,3.03
2019-04-21T23:12:28.169Z,3.53
2019-04-21T23:15:03.432Z,3.40
2019-04-21T23:17:46.624Z,3.07
2019-04-21T23:20:19.936Z,3.50
2019-04-21T23:22:51.345Z,2.93
2019-04-21T23:25:18.341Z,3.20
2019-04-21T23:27:46.877Z,3.00
2019-04-21T23:30:27.030Z,3.33
2019-04-21T23:32:42.240Z,3.03
2019-04-21T23:35:11.423Z,3.50
2019-04-21T23:37:40.114Z,2.90
2019-04-21T23:40:09.350Z,2.87
2019-04-21T23:42:39.727Z,2.93
2019-04-21T23:45:07.150Z,3.13
2019-04-21T23:47:48.122Z,3.37
2019-04-21T23:50:21.119Z,3.23
2019-04-21T23:52:39.398Z,3.00
2019-04-21T23:55:09.374Z,3.00
2019-04-21T23:57:43.233Z,2.83
